Time;durP1;ratioP1;P1;durP2;ratioP2;P2;SDS_P1;SDS_P2;PMS_P1;PMS_P2;Temp;Humidity;BMP_temperature;BMP_pressure;BME280_temperature;BME280_humidity;BME280_pressure;Samples;Min_cycle;Max_cycle;Signal;HPM_P1;HPM_P2
2022/10/20 00:00:39;;;;;;;;;;;;;;;15.15;62.21;101464.75;1237563;24;752;-72
2022/10/20 00:01:30;;;;;;;;;;;;;;;15.17;62.14;101468.16;1237711;24;682;-72
2022/10/20 00:02:20;;;;;;;;;;;;;;;15.15;61.89;101472.78;1237725;24;689;-71
2022/10/20 00:03:11;;;;;;;;;;;;;;;15.14;62.16;101471.94;1237745;24;654;-71
2022/10/20 00:04:01;;;;;;;;;;;;;;;15.14;61.76;101471.06;1237764;24;650;-72
2022/10/20 00:04:52;;;;;;;;;;;;;;;15.14;62.02;101476.44;1237723;24;658;-73
2022/10/20 00:05:42;;;;;;;;;;;;;;;15.15;62.12;101468.28;1237727;24;691;-71
2022/10/20 00:06:33;;;;;;;;;;;;;;;15.17;61.98;101470.84;1237791;24;690;-72
2022/10/20 00:07:23;;;;;;;;;;;;;;;15.15;62.24;101462.06;1237765;24;639;-71
2022/10/20 00:08:14;;;;;;;;;;;;;;;15.15;62.00;101468.28;1243242;23;713;-72
2022/10/20 00:09:04;;;;;;;;;;;;;;;15.13;61.90;101464.00;1242445;23;662;-72
2022/10/20 00:09:54;;;;;;;;;;;;;;;15.14;61.81;101463.88;1237978;23;713;-71
2022/10/20 00:10:45;;;;;;;;;;;;;;;15.12;62.12;101457.75;1237771;24;611;-71
2022/10/20 00:11:35;;;;;;;;;;;;;;;15.13;61.76;101462.16;1237845;24;647;-71
2022/10/20 00:12:26;;;;;;;;;;;;;;;15.14;62.31;101457.66;1237606;24;678;-72
2022/10/20 00:13:16;;;;;;;;;;;;;;;15.15;61.99;101456.69;1237837;24;760;-72
2022/10/20 00:14:06;;;;;;;;;;;;;;;15.12;61.74;101462.28;1237777;24;666;-72
2022/10/20 00:14:57;;;;;;;;;;;;;;;15.12;61.84;101463.13;1237703;24;619;-72
2022/10/20 00:15:47;;;;;;;;;;;;;;;15.11;62.19;101466.78;1237107;24;643;-72
2022/10/20 00:16:38;;;;;;;;;;;;;;;15.12;62.09;101468.50;1237863;23;654;-72
2022/10/20 00:17:28;;;;;;;;;;;;;;;15.12;62.13;101467.63;1237780;24;663;-72
2022/10/20 00:18:21;;;;;;;;;;;;;;;15.11;62.28;101464.09;1243171;23;718;-72
2022/10/20 00:19:11;;;;;;;;;;;;;;;15.10;61.84;101465.06;1242479;23;632;-72
2022/10/20 00:20:02;;;;;;;;;;;;;;;15.11;62.23;101460.56;1237038;24;670;-72
2022/10/20 00:20:52;;;;;;;;;;;;;;;15.11;62.08;101465.94;1237727;23;666;-72
2022/10/20 00:21:43;;;;;;;;;;;;;;;15.11;62.03;101461.41;1237664;24;662;-72
2022/10/20 00:22:33;;;;;;;;;;;;;;;15.11;62.14;101458.72;1237861;24;631;-72
2022/10/20 00:23:24;;;;;;;;;;;;;;;15.11;62.05;101460.56;1237805;23;666;-72
2022/10/20 00:24:14;;;;;;;;;;;;;;;15.09;62.13;101451.75;1237790;24;741;-72
2022/10/20 00:25:04;;;;;;;;;;;;;;;15.08;62.15;101447.34;1237645;23;725;-72
2022/10/20 00:25:55;;;;;;;;;;;;;;;15.08;62.37;101456.28;1237772;24;643;-73
2022/10/20 00:26:45;;;;;;;;;;;;;;;15.09;62.14;101451.75;1237560;24;1933;-72
2022/10/20 00:27:36;;;;;;;;;;;;;;;15.08;61.85;101444.69;1237703;24;570;-72
2022/10/20 00:28:26;;;;;;;;;;;;;;;15.07;62.32;101443.81;1237164;24;666;-72
2022/10/20 00:29:17;;;;;;;;;;;;;;;15.08;62.27;101440.16;1237719;24;663;-72
2022/10/20 00:30:07;;;;;;;;;;;;;;;15.08;62.24;101442.00;1236943;24;662;-72
2022/10/20 00:30:57;;;;;;;;;;;;;;;15.08;62.06;101439.31;1237672;24;607;-72
2022/10/20 00:31:48;;;;;;;;;;;;;;;15.08;62.02;101448.22;1237667;24;670;-72
2022/10/20 00:32:38;;;;;;;;;;;;;;;15.09;61.96;101446.38;1237702;24;769;-73
2022/10/20 00:33:29;;;;;;;;;;;;;;;15.09;62.35;101454.44;1237732;23;655;-72
2022/10/20 00:34:19;;;;;;;;;;;;;;;15.06;62.13;101451.97;1237675;24;666;-72
2022/10/20 00:35:10;;;;;;;;;;;;;;;15.08;62.29;101455.41;1237527;23;1211;-72
2022/10/20 00:36:00;;;;;;;;;;;;;;;15.08;61.78;101450.03;1237710;24;824;-72
2022/10/20 00:36:50;;;;;;;;;;;;;;;15.07;62.26;101451.88;1237666;24;615;-72
2022/10/20 00:37:41;;;;;;;;;;;;;;;15.06;62.31;101451.97;1237647;24;619;-72
2022/10/20 00:38:31;;;;;;;;;;;;;;;15.06;62.67;101449.28;1237717;24;592;-72
2022/10/20 00:39:22;;;;;;;;;;;;;;;15.04;62.34;101446.75;1237627;24;678;-71
2022/10/20 00:40:12;;;;;;;;;;;;;;;15.05;62.34;101442.25;1237772;24;620;-72
2022/10/20 00:41:03;;;;;;;;;;;;;;;15.05;62.21;101436.88;1237556;24;682;-72
2022/10/20 00:41:55;;;;;;;;;;;;;;;15.04;62.05;101427.97;1237691;23;650;-72
2022/10/20 00:42:46;;;;;;;;;;;;;;;15.03;62.07;101430.75;1236379;24;670;-72
2022/10/20 00:43:36;;;;;;;;;;;;;;;15.03;62.07;101428.06;1237675;23;645;-72
2022/10/20 00:44:27;;;;;;;;;;;;;;;15.04;61.83;101421.75;1237620;24;891;-72
2022/10/20 00:45:17;;;;;;;;;;;;;;;15.05;62.14;101415.41;1237704;24;623;-72
2022/10/20 00:46:08;;;;;;;;;;;;;;;15.04;61.90;101419.91;1237630;24;751;-72
2022/10/20 00:46:58;;;;;;;;;;;;;;;15.05;62.23;101412.72;1237614;24;1953;-71
2022/10/20 00:47:48;;;;;;;;;;;;;;;15.06;61.90;101414.41;1237565;24;784;-72
2022/10/20 00:48:39;;;;;;;;;;;;;;;15.05;62.07;101412.72;1237784;24;627;-72
2022/10/20 00:49:29;;;;;;;;;;;;;;;15.04;61.66;101413.69;1237740;23;635;-73
2022/10/20 00:50:20;;;;;;;;;;;;;;;15.03;62.20;101411.97;1237556;24;627;-72
2022/10/20 00:51:10;;;;;;;;;;;;;;;15.02;62.29;101408.44;1237615;24;671;-72
2022/10/20 00:52:01;;;;;;;;;;;;;;;15.04;62.32;101411.84;1237647;24;674;-72
2022/10/20 00:52:51;;;;;;;;;;;;;;;15.03;62.03;101412.81;1237635;24;627;-72
2022/10/20 00:53:41;;;;;;;;;;;;;;;15.04;61.87;101406.50;1237669;24;651;-72
2022/10/20 00:54:32;;;;;;;;;;;;;;;15.04;62.03;101409.19;1237747;24;630;-72
2022/10/20 00:55:22;;;;;;;;;;;;;;;15.04;62.04;101408.31;1237712;24;666;-72
2022/10/20 00:56:13;;;;;;;;;;;;;;;15.03;61.78;101417.34;1237588;24;718;-72
2022/10/20 00:57:03;;;;;;;;;;;;;;;15.03;62.04;101414.66;1237187;24;619;-72
2022/10/20 00:57:53;;;;;;;;;;;;;;;15.04;62.24;101417.22;1237586;24;614;-72
2022/10/20 00:58:44;;;;;;;;;;;;;;;15.02;62.49;101419.16;1237656;24;702;-72
2022/10/20 00:59:34;;;;;;;;;;;;;;;15.03;62.04;101420.03;1237748;24;618;-72
2022/10/20 01:00:25;;;;;;;;;;;;;;;15.04;62.13;101421.75;1237700;24;673;-72
2022/10/20 01:01:15;;;;;;;;;;;;;;;15.04;62.12;101422.59;1237804;24;630;-72
2022/10/20 01:02:06;;;;;;;;;;;;;;;15.02;62.27;101413.78;1237613;24;611;-72
2022/10/20 01:02:56;;;;;;;;;;;;;;;15.03;62.15;101411.97;1237727;24;697;-72
2022/10/20 01:03:46;;;;;;;;;;;;;;;15.04;62.36;101411.00;1237785;24;662;-72
2022/10/20 01:04:37;;;;;;;;;;;;;;;15.02;62.55;101412.94;1237640;23;674;-72
2022/10/20 01:05:27;;;;;;;;;;;;;;;15.00;62.47;101404.13;1237574;24;662;-72
2022/10/20 01:06:18;;;;;;;;;;;;;;;14.99;62.66;101408.66;1237734;24;632;-72
2022/10/20 01:07:08;;;;;;;;;;;;;;;14.99;62.14;101411.34;1237542;24;1931;-72
2022/10/20 01:08:00;;;;;;;;;;;;;;;15.00;62.45;101409.50;1237615;24;642;-72
2022/10/20 01:08:50;;;;;;;;;;;;;;;14.99;62.36;101405.97;1237669;23;642;-72
2022/10/20 01:09:41;;;;;;;;;;;;;;;14.98;62.38;101406.94;1237737;24;643;-72
2022/10/20 01:10:31;;;;;;;;;;;;;;;14.99;62.23;101402.44;1237697;24;678;-72
2022/10/20 01:11:22;;;;;;;;;;;;;;;14.99;62.32;101405.09;1237724;23;835;-72
2022/10/20 01:12:12;;;;;;;;;;;;;;;14.99;62.52;101405.09;1237711;24;631;-72
2022/10/20 01:13:03;;;;;;;;;;;;;;;14.98;62.10;101404.25;1237727;24;674;-72
2022/10/20 01:13:53;;;;;;;;;;;;;;;14.98;62.32;101396.19;1237531;24;623;-72
2022/10/20 01:14:43;;;;;;;;;;;;;;;14.96;62.46;101392.78;1237670;24;670;-72
2022/10/20 01:15:34;;;;;;;;;;;;;;;14.97;62.53;101382.91;1237630;24;659;-72
2022/10/20 01:16:24;;;;;;;;;;;;;;;14.98;62.32;101381.91;1237697;24;627;-72
2022/10/20 01:17:15;;;;;;;;;;;;;;;14.98;62.45;101390.84;1238122;24;658;-72
2022/10/20 01:18:05;;;;;;;;;;;;;;;14.96;62.33;101384.72;1238191;24;701;-72
2022/10/20 01:18:55;;;;;;;;;;;;;;;14.98;62.12;101381.91;1238015;24;634;-72
2022/10/20 01:19:46;;;;;;;;;;;;;;;14.96;62.38;101386.53;1243565;23;649;-72
2022/10/20 01:20:36;;;;;;;;;;;;;;;14.96;62.61;101386.53;1242786;23;796;-72
2022/10/20 01:21:27;;;;;;;;;;;;;;;14.95;62.43;101383.00;1237384;24;630;-73
2022/10/20 01:22:17;;;;;;;;;;;;;;;14.96;62.33;101386.53;1237943;24;682;-72
2022/10/20 01:23:08;;;;;;;;;;;;;;;14.96;62.54;101384.72;1238081;24;642;-72
2022/10/20 01:24:00;;;;;;;;;;;;;;;14.95;62.20;101388.38;1238121;24;666;-72
2022/10/20 01:24:50;;;;;;;;;;;;;;;14.92;62.58;101386.78;1237375;24;639;-72
2022/10/20 01:25:40;;;;;;;;;;;;;;;14.93;62.31;101393.00;1237974;24;772;-72
2022/10/20 01:26:31;;;;;;;;;;;;;;;14.94;62.54;101390.19;1238007;24;666;-71
2022/10/20 01:27:21;;;;;;;;;;;;;;;14.95;62.68;101385.69;1237989;24;634;-71
2022/10/20 01:28:12;;;;;;;;;;;;;;;14.93;62.27;101383.13;1238017;24;631;-72
2022/10/20 01:29:02;;;;;;;;;;;;;;;14.96;62.26;101386.53;1238076;24;694;-71
2022/10/20 01:29:53;;;;;;;;;;;;;;;14.94;62.17;101389.34;1238084;24;650;-71
2022/10/20 01:30:43;;;;;;;;;;;;;;;14.93;62.38;101385.81;1238043;24;627;-72
2022/10/20 01:31:33;;;;;;;;;;;;;;;14.91;62.35;101377.00;1243504;23;662;-72
2022/10/20 01:32:24;;;;;;;;;;;;;;;14.92;62.57;101380.53;1243514;23;669;-72
2022/10/20 01:33:14;;;;;;;;;;;;;;;14.91;62.35;101379.69;1238469;23;681;-71
2022/10/20 01:34:05;;;;;;;;;;;;;;;14.92;62.46;101367.13;1236945;24;635;-72
2022/10/20 01:34:55;;;;;;;;;;;;;;;14.91;62.31;101352.84;1237280;24;717;-72
2022/10/20 01:35:45;;;;;;;;;;;;;;;14.91;62.45;101358.22;1226516;24;666;-72
2022/10/20 01:36:36;;;;;;;;;;;;;;;14.90;62.46;101351.13;1225462;24;635;-72
2022/10/20 01:37:26;;;;;;;;;;;;;;;14.90;62.43;101353.81;1225449;24;682;-72
2022/10/20 01:38:17;;;;;;;;;;;;;;;14.91;62.39;101352.00;1226259;24;791;-72
2022/10/20 01:39:07;;;;;;;;;;;;;;;14.93;62.01;101350.06;1227473;24;646;-72
2022/10/20 01:39:58;;;;;;;;;;;;;;;14.94;62.35;101347.25;1225672;24;650;-72
2022/10/20 01:40:48;;;;;;;;;;;;;;;14.94;62.51;101351.78;1225260;24;631;-72
2022/10/20 01:41:38;;;;;;;;;;;;;;;14.91;62.68;101344.81;1225757;24;671;-72
2022/10/20 01:42:29;;;;;;;;;;;;;;;14.93;62.57;101339.31;1225861;24;608;-72
2022/10/20 01:43:19;;;;;;;;;;;;;;;14.93;62.52;101332.13;1226624;24;639;-72
2022/10/20 01:44:10;;;;;;;;;;;;;;;14.92;62.70;101338.47;1225645;24;672;-72
2022/10/20 01:45:00;;;;;;;;;;;;;;;14.90;62.63;101335.03;1225893;24;612;-72
2022/10/20 01:45:51;;;;;;;;;;;;;;;14.89;62.33;101336.00;1225621;24;721;-73
2022/10/20 01:46:41;;;;;;;;;;;;;;;14.91;62.25;101335.88;1225877;24;678;-72
2022/10/20 01:47:31;;;;;;;;;;;;;;;14.89;62.52;101333.31;1225729;24;627;-73
2022/10/20 01:48:22;;;;;;;;;;;;;;;14.88;62.57;101328.94;1225827;24;678;-72
2022/10/20 01:49:12;;;;;;;;;;;;;;;14.89;62.33;101338.69;1226045;24;596;-72
2022/10/20 01:50:03;;;;;;;;;;;;;;;14.90;62.46;101326.97;1225413;24;643;-73
2022/10/20 01:50:53;;;;;;;;;;;;;;;14.89;62.23;101336.00;1226168;24;667;-73
2022/10/20 01:51:44;;;;;;;;;;;;;;;14.90;62.39;101329.66;1225595;24;655;-72
2022/10/20 01:52:34;;;;;;;;;;;;;;;14.88;62.33;101320.88;1225707;24;643;-72
2022/10/20 01:53:25;;;;;;;;;;;;;;;14.89;62.39;101319.91;1225943;24;671;-72
2022/10/20 01:54:15;;;;;;;;;;;;;;;14.89;62.41;101319.03;1225787;24;643;-72
2022/10/20 01:55:05;;;;;;;;;;;;;;;14.89;62.34;101317.22;1225289;24;689;-72
2022/10/20 01:55:56;;;;;;;;;;;;;;;14.89;62.45;101311.84;1225682;24;666;-72
2022/10/20 01:56:46;;;;;;;;;;;;;;;14.91;62.49;101320.66;1225726;24;627;-72
2022/10/20 01:57:37;;;;;;;;;;;;;;;14.89;62.37;101322.59;1225628;24;670;-72
2022/10/20 01:58:27;;;;;;;;;;;;;;;14.88;62.56;101323.56;1225752;24;727;-72
2022/10/20 01:59:18;;;;;;;;;;;;;;;14.88;62.76;101320.88;1225765;24;820;-72
2022/10/20 02:00:08;;;;;;;;;;;;;;;14.85;62.35;101321.13;1227401;24;638;-72
2022/10/20 02:00:59;;;;;;;;;;;;;;;14.85;62.63;101326.50;1225643;24;620;-72
2022/10/20 02:01:49;;;;;;;;;;;;;;;14.87;62.76;101324.53;1225798;24;655;-72
2022/10/20 02:02:39;;;;;;;;;;;;;;;14.88;62.38;101315.50;1225782;24;671;-73
2022/10/20 02:03:30;;;;;;;;;;;;;;;14.86;62.42;101317.47;1225709;24;637;-72
2022/10/20 02:04:20;;;;;;;;;;;;;;;14.86;62.72;101319.31;1225949;24;698;-72
2022/10/20 02:05:11;;;;;;;;;;;;;;;14.86;62.52;101312.13;1225761;24;736;-72
2022/10/20 02:06:01;;;;;;;;;;;;;;;14.86;62.50;101313.94;1225811;24;693;-72
2022/10/20 02:06:52;;;;;;;;;;;;;;;14.84;62.86;101313.19;1225564;24;1894;-72
2022/10/20 02:07:42;;;;;;;;;;;;;;;14.87;62.24;101310.25;1225793;24;659;-72
2022/10/20 02:08:32;;;;;;;;;;;;;;;14.85;62.37;101304.19;1225866;24;679;-72
2022/10/20 02:09:23;;;;;;;;;;;;;;;14.84;62.45;101300.63;1225488;24;625;-72
2022/10/20 02:10:13;;;;;;;;;;;;;;;14.84;62.73;101297.94;1225868;24;682;-72
2022/10/20 02:11:04;;;;;;;;;;;;;;;14.85;62.33;101290.75;1225712;24;623;-72
2022/10/20 02:11:54;;;;;;;;;;;;;;;14.83;62.42;101285.50;1225823;24;647;-73
2022/10/20 02:12:44;;;;;;;;;;;;;;;14.84;62.78;101287.22;1225851;24;647;-72
2022/10/20 02:13:35;;;;;;;;;;;;;;;14.85;62.22;101282.72;1226593;24;650;-72
2022/10/20 02:14:25;;;;;;;;;;;;;;;14.85;62.67;101283.56;1225373;24;643;-72
2022/10/20 02:15:16;;;;;;;;;;;;;;;14.81;62.56;101276.72;1226068;24;624;-72
2022/10/20 02:16:06;;;;;;;;;;;;;;;14.83;62.53;101281.97;1226520;24;769;-73
2022/10/20 02:16:57;;;;;;;;;;;;;;;14.83;62.30;101284.66;1225663;24;725;-72
2022/10/20 02:17:47;;;;;;;;;;;;;;;14.84;62.63;101279.16;1225737;24;660;-73
2022/10/20 02:18:37;;;;;;;;;;;;;;;14.82;62.62;101277.56;1225376;24;635;-72
2022/10/20 02:19:28;;;;;;;;;;;;;;;14.81;62.46;101278.53;1226139;24;686;-72
2022/10/20 02:20:18;;;;;;;;;;;;;;;14.81;62.76;101279.41;1225656;24;667;-72
2022/10/20 02:21:09;;;;;;;;;;;;;;;14.80;62.74;101288.41;1225589;24;623;-72
2022/10/20 02:21:59;;;;;;;;;;;;;;;14.81;62.71;101286.59;1225459;24;655;-73
2022/10/20 02:22:49;;;;;;;;;;;;;;;14.81;62.25;101281.22;1226139;24;674;-72
2022/10/20 02:23:40;;;;;;;;;;;;;;;14.83;62.52;101284.66;1226418;24;667;-72
2022/10/20 02:24:30;;;;;;;;;;;;;;;14.81;61.96;101276.72;1225827;24;667;-73
2022/10/20 02:25:21;;;;;;;;;;;;;;;14.81;62.60;101282.06;1225695;24;675;-72
2022/10/20 02:26:11;;;;;;;;;;;;;;;14.79;62.50;101275.97;1225806;24;687;-72
2022/10/20 02:27:02;;;;;;;;;;;;;;;14.79;62.64;101280.47;1225413;24;1941;-73
2022/10/20 02:27:52;;;;;;;;;;;;;;;14.82;62.75;101283.78;1225734;24;670;-72
2022/10/20 02:28:42;;;;;;;;;;;;;;;14.82;62.39;101293.66;1225761;24;631;-73
2022/10/20 02:29:33;;;;;;;;;;;;;;;14.80;62.39;101282.19;1225768;24;627;-72
2022/10/20 02:30:23;;;;;;;;;;;;;;;14.81;62.30;101283.91;1225745;24;662;-72
2022/10/20 02:31:14;;;;;;;;;;;;;;;14.80;62.21;101277.69;1225707;24;642;-72
2022/10/20 02:32:04;;;;;;;;;;;;;;;14.79;62.54;101286.69;1225648;24;666;-72
2022/10/20 02:32:55;;;;;;;;;;;;;;;14.79;62.75;101284.03;1225582;24;667;-73
2022/10/20 02:33:45;;;;;;;;;;;;;;;14.79;62.82;101284.03;1225755;24;615;-72
2022/10/20 02:34:35;;;;;;;;;;;;;;;14.78;62.35;101287.66;1225786;24;663;-73
2022/10/20 02:35:26;;;;;;;;;;;;;;;14.78;62.70;101276.94;1235958;24;1199;-72
2022/10/20 02:36:16;;;;;;;;;;;;;;;14.77;62.84;101280.59;1237985;23;720;-73
2022/10/20 02:37:07;;;;;;;;;;;;;;;14.77;62.55;101275.22;1237977;23;636;-72
2022/10/20 02:37:57;;;;;;;;;;;;;;;14.78;63.01;101276.94;1237925;24;611;-72
2022/10/20 02:38:47;;;;;;;;;;;;;;;14.77;62.57;101269.84;1237323;23;555;-72
2022/10/20 02:39:38;;;;;;;;;;;;;;;14.77;62.66;101269.00;1237833;24;654;-72
2022/10/20 02:40:28;;;;;;;;;;;;;;;14.77;62.43;101259.13;1237893;23;675;-73
2022/10/20 02:41:19;;;;;;;;;;;;;;;14.77;62.43;101264.50;1237830;24;650;-72
2022/10/20 02:42:11;;;;;;;;;;;;;;;14.75;62.57;101261.06;1237927;23;709;-73
2022/10/20 02:43:01;;;;;;;;;;;;;;;14.77;62.45;101259.13;1237140;24;642;-72
2022/10/20 02:43:51;;;;;;;;;;;;;;;14.75;62.53;101249.47;1237972;24;674;-72
2022/10/20 02:44:42;;;;;;;;;;;;;;;14.76;62.61;101249.38;1243258;23;650;-72
2022/10/20 02:45:32;;;;;;;;;;;;;;;14.75;62.65;101249.47;1244211;23;658;-72
2022/10/20 02:46:23;;;;;;;;;;;;;;;14.75;62.68;101242.28;1237185;24;623;-72
2022/10/20 02:47:13;;;;;;;;;;;;;;;14.76;62.65;101246.69;1243326;23;1932;-72
2022/10/20 02:48:04;;;;;;;;;;;;;;;14.75;62.62;101241.44;1244284;23;712;-72
2022/10/20 02:48:54;;;;;;;;;;;;;;;14.75;62.84;101246.81;1237165;24;622;-73
2022/10/20 02:49:44;;;;;;;;;;;;;;;14.76;62.58;101240.47;1237948;24;622;-72
2022/10/20 02:50:35;;;;;;;;;;;;;;;14.76;62.81;101243.16;1237897;23;630;-72
2022/10/20 02:51:25;;;;;;;;;;;;;;;14.76;62.52;101241.31;1237843;24;721;-72
2022/10/20 02:52:16;;;;;;;;;;;;;;;14.76;62.45;101233.28;1237896;24;666;-72
2022/10/20 02:53:06;;;;;;;;;;;;;;;14.74;62.67;101237.91;1237274;23;728;-72
2022/10/20 02:53:57;;;;;;;;;;;;;;;14.75;62.71;101241.44;1237891;24;626;-73
2022/10/20 02:54:47;;;;;;;;;;;;;;;14.74;62.61;101235.22;1237848;23;596;-72
2022/10/20 02:55:38;;;;;;;;;;;;;;;14.74;62.81;101237.03;1237994;23;673;-72
2022/10/20 02:56:28;;;;;;;;;;;;;;;14.72;62.54;101234.47;1237856;23;662;-72
2022/10/20 02:57:18;;;;;;;;;;;;;;;14.72;62.72;101237.16;1237804;24;646;-72
2022/10/20 02:58:09;;;;;;;;;;;;;;;14.74;62.71;101237.03;1237852;23;604;-72
2022/10/20 02:58:59;;;;;;;;;;;;;;;14.72;62.50;101234.47;1237823;24;647;-72
2022/10/20 02:59:50;;;;;;;;;;;;;;;14.74;62.60;101224.47;1237920;24;713;-72
2022/10/20 03:00:40;;;;;;;;;;;;;;;14.74;62.51;101226.31;1238003;23;626;-72
2022/10/20 03:01:31;;;;;;;;;;;;;;;14.73;62.82;101220.09;1237900;24;615;-72
2022/10/20 03:02:21;;;;;;;;;;;;;;;14.73;62.46;101217.41;1237770;24;629;-73
2022/10/20 03:03:11;;;;;;;;;;;;;;;14.73;62.74;101220.09;1237836;24;639;-72
2022/10/20 03:04:02;;;;;;;;;;;;;;;14.73;62.56;101216.53;1237813;24;635;-73
2022/10/20 03:04:52;;;;;;;;;;;;;;;14.74;62.76;101219.13;1237828;24;677;-72
2022/10/20 03:05:43;;;;;;;;;;;;;;;14.73;62.48;101214.72;1237802;24;615;-72
2022/10/20 03:06:33;;;;;;;;;;;;;;;14.72;62.93;101217.50;1237287;24;627;-72
2022/10/20 03:07:24;;;;;;;;;;;;;;;14.72;62.84;101220.19;1237941;24;642;-72
2022/10/20 03:08:14;;;;;;;;;;;;;;;14.72;62.54;101210.31;1237881;24;670;-73
2022/10/20 03:09:05;;;;;;;;;;;;;;;14.72;62.49;101212.16;1238003;24;631;-73
2022/10/20 03:09:55;;;;;;;;;;;;;;;14.73;62.63;101217.41;1237879;24;642;-72
2022/10/20 03:10:45;;;;;;;;;;;;;;;14.71;62.50;101210.44;1237781;24;666;-72
2022/10/20 03:11:36;;;;;;;;;;;;;;;14.70;62.73;101206.03;1243359;23;654;-72
2022/10/20 03:12:26;;;;;;;;;;;;;;;14.71;62.57;101200.56;1242624;23;658;-73
2022/10/20 03:13:17;;;;;;;;;;;;;;;14.71;62.87;101200.56;1237047;24;658;-73
2022/10/20 03:14:07;;;;;;;;;;;;;;;14.72;62.71;101202.28;1237774;24;697;-72
2022/10/20 03:14:58;;;;;;;;;;;;;;;14.73;62.69;101195.09;1237824;24;647;-72
2022/10/20 03:15:48;;;;;;;;;;;;;;;14.71;62.96;101203.25;1237676;24;619;-72
2022/10/20 03:16:38;;;;;;;;;;;;;;;14.71;62.61;101203.25;1237764;24;685;-72
2022/10/20 03:17:29;;;;;;;;;;;;;;;14.71;62.34;101195.19;1237855;24;670;-72
2022/10/20 03:18:19;;;;;;;;;;;;;;;14.71;62.44;101197.03;1237906;24;725;-72
2022/10/20 03:19:10;;;;;;;;;;;;;;;14.72;62.94;101202.28;1237794;24;646;-72
2022/10/20 03:20:01;;;;;;;;;;;;;;;14.70;62.63;101196.16;1237667;24;776;-73
2022/10/20 03:20:51;;;;;;;;;;;;;;;14.72;62.98;101196.06;1237168;24;666;-72
2022/10/20 03:21:42;;;;;;;;;;;;;;;14.72;62.56;101193.38;1237850;24;670;-72
2022/10/20 03:22:32;;;;;;;;;;;;;;;14.70;62.62;101185.44;1237865;24;697;-73
2022/10/20 03:23:23;;;;;;;;;;;;;;;14.70;62.48;101180.06;1237839;24;603;-72
2022/10/20 03:24:13;;;;;;;;;;;;;;;14.71;62.85;101179.09;1237766;24;748;-72
2022/10/20 03:25:04;;;;;;;;;;;;;;;14.69;62.78;101175.69;1237898;24;647;-72
2022/10/20 03:25:54;;;;;;;;;;;;;;;14.70;62.93;101182.75;1237769;24;647;-72
2022/10/20 03:26:45;;;;;;;;;;;;;;;14.68;62.81;101179.38;1237883;24;678;-72
2022/10/20 03:27:35;;;;;;;;;;;;;;;14.68;62.78;101178.50;1237694;24;655;-72
2022/10/20 03:28:25;;;;;;;;;;;;;;;14.67;62.86;101177.66;1237709;24;666;-72
2022/10/20 03:29:16;;;;;;;;;;;;;;;14.67;62.81;101188.38;1237835;24;654;-73
2022/10/20 03:30:06;;;;;;;;;;;;;;;14.67;62.87;101184.84;1237996;23;610;-72
2022/10/20 03:30:57;;;;;;;;;;;;;;;14.65;62.79;101184.97;1237874;24;1179;-72
2022/10/20 03:31:47;;;;;;;;;;;;;;;14.66;62.51;101185.81;1237817;24;599;-73
2022/10/20 03:32:38;;;;;;;;;;;;;;;14.65;62.82;101184.09;1237853;24;614;-72
2022/10/20 03:33:28;;;;;;;;;;;;;;;14.65;62.52;101184.09;1237861;24;596;-73
2022/10/20 03:34:18;;;;;;;;;;;;;;;14.65;62.72;101184.09;1237835;23;654;-73
2022/10/20 03:35:09;;;;;;;;;;;;;;;14.66;62.90;101175.09;1237596;24;1408;-73
2022/10/20 03:35:59;;;;;;;;;;;;;;;14.63;62.86;101170.81;1237824;23;693;-72
2022/10/20 03:36:50;;;;;;;;;;;;;;;14.65;62.57;101168.00;1237269;24;769;-73
2022/10/20 03:37:40;;;;;;;;;;;;;;;14.65;62.45;101165.31;1237696;24;627;-72
2022/10/20 03:38:31;;;;;;;;;;;;;;;14.67;62.67;101160.69;1237722;24;761;-72
2022/10/20 03:39:21;;;;;;;;;;;;;;;14.67;62.88;101166.06;1237841;23;646;-72
2022/10/20 03:40:11;;;;;;;;;;;;;;;14.64;62.82;101159.09;1242969;23;674;-72
2022/10/20 03:41:02;;;;;;;;;;;;;;;14.64;62.91;101159.09;1242297;23;647;-72
2022/10/20 03:41:52;;;;;;;;;;;;;;;14.64;62.86;101153.75;1237195;24;690;-72
2022/10/20 03:42:43;;;;;;;;;;;;;;;14.64;62.52;101153.75;1237726;24;808;-73
2022/10/20 03:43:33;;;;;;;;;;;;;;;14.63;62.57;101154.72;1237784;23;654;-73
2022/10/20 03:44:24;;;;;;;;;;;;;;;14.63;62.79;101154.72;1237910;23;674;-72
2022/10/20 03:45:14;;;;;;;;;;;;;;;14.63;62.72;101143.97;1237666;24;709;-72
2022/10/20 03:46:04;;;;;;;;;;;;;;;14.63;63.00;101143.13;1237720;24;701;-72
2022/10/20 03:46:55;;;;;;;;;;;;;;;14.64;62.92;101150.19;1243043;23;1940;-72
2022/10/20 03:47:45;;;;;;;;;;;;;;;14.63;62.58;101145.81;1242565;23;701;-72
2022/10/20 03:48:36;;;;;;;;;;;;;;;14.63;62.66;101148.50;1237051;24;662;-72
2022/10/20 03:49:26;;;;;;;;;;;;;;;14.62;62.57;101153.00;1243266;23;670;-72
2022/10/20 03:50:17;;;;;;;;;;;;;;;14.63;62.67;101146.66;1242445;23;669;-72
2022/10/20 03:51:10;;;;;;;;;;;;;;;14.63;62.40;101140.44;1236612;24;665;-72
2022/10/20 03:52:01;;;;;;;;;;;;;;;14.63;62.82;101143.97;1237681;24;603;-72
2022/10/20 03:52:51;;;;;;;;;;;;;;;14.62;62.78;101146.78;1237854;24;671;-72
2022/10/20 03:53:42;;;;;;;;;;;;;;;14.61;62.80;101143.25;1237830;24;670;-72
2022/10/20 03:54:32;;;;;;;;;;;;;;;14.59;62.78;101148.72;1237877;24;651;-72
2022/10/20 03:55:23;;;;;;;;;;;;;;;14.60;62.48;101144.22;1237754;24;693;-72
2022/10/20 03:56:13;;;;;;;;;;;;;;;14.62;62.87;101157.50;1237770;24;619;-72
2022/10/20 03:57:03;;;;;;;;;;;;;;;14.63;62.94;101157.41;1237849;24;697;-72
2022/10/20 03:57:54;;;;;;;;;;;;;;;14.61;62.75;101145.94;1237559;24;753;-72
2022/10/20 03:58:44;;;;;;;;;;;;;;;14.61;62.52;101140.56;1237744;24;674;-72
2022/10/20 03:59:35;;;;;;;;;;;;;;;14.61;62.62;101137.88;1237783;24;702;-71
2022/10/20 04:00:25;;;;;;;;;;;;;;;14.61;62.92;101137.03;1237835;24;662;-72
2022/10/20 04:01:15;;;;;;;;;;;;;;;14.60;62.57;101138.84;1237839;24;634;-72
2022/10/20 04:02:06;;;;;;;;;;;;;;;14.58;62.70;101125.56;1237829;24;650;-72
2022/10/20 04:02:56;;;;;;;;;;;;;;;14.59;62.50;101131.78;1237749;24;666;-72
2022/10/20 04:03:47;;;;;;;;;;;;;;;14.58;62.45;101122.88;1243122;23;638;-72
2022/10/20 04:04:37;;;;;;;;;;;;;;;14.59;62.71;101119.22;1242390;23;631;-72
2022/10/20 04:05:28;;;;;;;;;;;;;;;14.60;62.36;101120.06;1237026;24;659;-72
2022/10/20 04:06:18;;;;;;;;;;;;;;;14.57;62.73;101112.25;1243274;23;638;-72
2022/10/20 04:07:09;;;;;;;;;;;;;;;14.58;62.81;101116.66;1242523;23;1886;-72
2022/10/20 04:07:59;;;;;;;;;;;;;;;14.57;62.75;101101.53;1237096;24;687;-71
2022/10/20 04:08:49;;;;;;;;;;;;;;;14.57;62.91;101099.72;1237705;24;623;-72
2022/10/20 04:09:40;;;;;;;;;;;;;;;14.57;62.74;101098.84;1237707;24;631;-72
2022/10/20 04:10:30;;;;;;;;;;;;;;;14.57;62.46;101094.34;1237722;24;666;-72
2022/10/20 04:11:21;;;;;;;;;;;;;;;14.57;62.40;101085.44;1237736;23;702;-72
2022/10/20 04:12:11;;;;;;;;;;;;;;;14.58;62.85;101087.16;1237767;24;628;-72
2022/10/20 04:13:02;;;;;;;;;;;;;;;14.58;62.72;101092.50;1237757;24;670;-72
2022/10/20 04:13:52;;;;;;;;;;;;;;;14.58;62.85;101087.16;1237653;24;675;-72
2022/10/20 04:14:43;;;;;;;;;;;;;;;14.56;62.53;101099.81;1237768;24;662;-72
2022/10/20 04:15:33;;;;;;;;;;;;;;;14.56;62.43;101097.13;1237640;24;655;-71
2022/10/20 04:16:23;;;;;;;;;;;;;;;14.58;62.53;101095.19;1237850;23;690;-72
2022/10/20 04:17:14;;;;;;;;;;;;;;;14.58;62.92;101097.88;1237814;23;662;-72
2022/10/20 04:18:04;;;;;;;;;;;;;;;14.58;62.65;101103.25;1237785;24;635;-72
2022/10/20 04:18:55;;;;;;;;;;;;;;;14.58;62.70;101105.94;1237811;24;643;-72
2022/10/20 04:19:45;;;;;;;;;;;;;;;14.58;62.53;101108.59;1237769;23;666;-72
2022/10/20 04:20:36;;;;;;;;;;;;;;;14.57;62.65;101115.81;1237623;24;674;-72
2022/10/20 04:21:26;;;;;;;;;;;;;;;14.58;62.69;101116.66;1236790;24;670;-72
2022/10/20 04:22:16;;;;;;;;;;;;;;;14.58;62.98;101113.97;1237706;23;666;-72
2022/10/20 04:23:07;;;;;;;;;;;;;;;14.57;62.63;101113.13;1237718;24;681;-72
2022/10/20 04:23:57;;;;;;;;;;;;;;;14.56;62.87;101107.88;1243208;23;685;-72
2022/10/20 04:24:48;;;;;;;;;;;;;;;14.54;62.69;101096.41;1242401;23;639;-72
2022/10/20 04:25:38;;;;;;;;;;;;;;;14.55;62.86;101096.28;1237019;24;654;-72
2022/10/20 04:26:29;;;;;;;;;;;;;;;14.55;62.43;101098.13;1237753;23;662;-72